createdAt,value
2023-04-25T00:01:07.283Z,92.05
2023-04-25T00:02:39.474Z,91.90
2023-04-25T00:04:13.671Z,91.94
2023-04-25T00:05:46.701Z,91.84
2023-04-25T00:07:21.192Z,92.01
2023-04-25T00:08:54.405Z,92.00
2023-04-25T00:10:26.507Z,91.91
2023-04-25T00:11:58.603Z,91.73
2023-04-25T00:13:30.928Z,91.91
2023-04-25T00:15:03.159Z,91.79
2023-04-25T00:16:36.537Z,92.17
2023-04-25T00:18:09.341Z,91.97
2023-04-25T00:19:41.778Z,92.18
2023-04-25T00:21:13.788Z,92.26
2023-04-25T00:22:45.909Z,92.30
2023-04-25T00:24:18.081Z,92.25
2023-04-25T00:25:51.024Z,92.11
2023-04-25T00:27:23.116Z,92.28
2023-04-25T00:28:55.222Z,92.40
2023-04-25T00:30:27.327Z,92.58
2023-04-25T00:31:59.592Z,92.71
2023-04-25T00:33:31.748Z,92.84
2023-04-25T00:35:04.104Z,92.93
2023-04-25T00:36:36.335Z,93.01
2023-04-25T00:38:08.393Z,93.18
2023-04-25T00:39:40.508Z,92.99
2023-04-25T00:41:13.240Z,93.38
2023-04-25T00:42:46.172Z,93.32
2023-04-25T00:44:18.436Z,93.49
2023-04-25T00:45:52.626Z,93.35
2023-04-25T00:47:25.474Z,93.47
2023-04-25T00:48:57.533Z,93.37
2023-04-25T00:50:29.569Z,93.29
2023-04-25T00:53:36.222Z,93.36
2023-04-25T00:55:08.937Z,93.26
2023-04-25T00:56:41.201Z,93.15
2023-04-25T00:58:13.248Z,93.17
2023-04-25T00:59:47.201Z,93.31
2023-04-25T01:01:19.293Z,93.18
2023-04-25T01:02:51.925Z,92.89
2023-04-25T01:04:24.520Z,93.17
2023-04-25T01:05:56.773Z,92.88
2023-04-25T01:07:28.897Z,92.91
2023-04-25T01:09:01.186Z,93.07
2023-04-25T01:10:33.273Z,92.95
2023-04-25T01:12:05.767Z,93.02
2023-04-25T01:13:37.985Z,92.80
2023-04-25T01:15:10.397Z,93.10
2023-04-25T01:16:42.833Z,93.20
2023-04-25T01:18:15.060Z,93.16
2023-04-25T01:19:50.404Z,93.24
2023-04-25T01:21:22.409Z,93.31
2023-04-25T01:22:54.812Z,93.56
2023-04-25T01:24:27.303Z,93.51
2023-04-25T01:25:59.373Z,93.51
2023-04-25T01:27:31.625Z,93.38
2023-04-25T01:29:05.685Z,93.44
2023-04-25T01:30:37.775Z,93.16
2023-04-25T01:32:10.151Z,93.12
2023-04-25T01:33:42.302Z,92.77
2023-04-25T01:35:14.416Z,92.64
2023-04-25T01:36:46.825Z,92.50
2023-04-25T01:38:21.252Z,92.43
2023-04-25T01:39:54.119Z,92.28
2023-04-25T01:41:26.662Z,92.11
2023-04-25T01:42:58.743Z,92.07
2023-04-25T01:44:30.892Z,92.21
2023-04-25T01:46:03.187Z,92.54
2023-04-25T01:47:36.642Z,92.22
2023-04-25T01:49:09.074Z,91.87
2023-04-25T01:50:42.093Z,91.74
2023-04-25T01:52:14.207Z,91.60
2023-04-25T01:53:46.368Z,91.57
2023-04-25T01:55:18.432Z,91.37
2023-04-25T01:56:53.665Z,91.26
2023-04-25T01:58:25.765Z,90.85
2023-04-25T02:00:02.750Z,91.06
2023-04-25T02:01:34.952Z,91.32
2023-04-25T02:03:07.463Z,91.17
2023-04-25T02:04:39.756Z,91.21
2023-04-25T02:06:11.999Z,91.38
2023-04-25T02:07:44.332Z,91.35
2023-04-25T02:09:16.509Z,91.40
2023-04-25T02:10:48.685Z,91.49
2023-04-25T02:12:20.949Z,91.78
2023-04-25T02:13:53.216Z,91.81
2023-04-25T02:15:25.693Z,91.80
2023-04-25T02:16:58.755Z,91.80
2023-04-25T02:18:30.995Z,91.89
2023-04-25T02:20:03.244Z,92.05
2023-04-25T02:21:37.187Z,92.30
2023-04-25T02:23:09.397Z,92.41
2023-04-25T02:24:41.658Z,92.57
2023-04-25T02:26:14.737Z,92.63
2023-04-25T02:27:47.548Z,92.67
2023-04-25T02:29:19.574Z,92.58
2023-04-25T02:30:51.569Z,92.93
2023-04-25T02:32:23.862Z,92.88
2023-04-25T02:33:55.855Z,92.73
2023-04-25T02:35:27.999Z,92.78
2023-04-25T02:37:02.486Z,92.89
2023-04-25T02:38:34.819Z,93.17
2023-04-25T02:40:08.149Z,93.26
2023-04-25T02:41:40.326Z,93.22
2023-04-25T02:43:12.425Z,93.48
2023-04-25T02:44:44.462Z,93.46
2023-04-25T02:46:22.935Z,93.49
2023-04-25T02:48:01.005Z,93.23
2023-04-25T02:49:33.181Z,93.26
2023-04-25T02:51:05.389Z,93.51
2023-04-25T02:52:37.460Z,93.56
2023-04-25T02:54:09.501Z,93.55
2023-04-25T02:55:41.566Z,93.42
2023-04-25T02:57:13.646Z,93.37
2023-04-25T02:58:46.434Z,93.58
2023-04-25T03:00:18.601Z,93.54
2023-04-25T03:01:51.022Z,93.51
2023-04-25T03:03:23.236Z,93.53
2023-04-25T03:04:55.705Z,93.31
2023-04-25T03:06:27.820Z,93.25
2023-04-25T03:08:00.272Z,93.38
2023-04-25T03:09:32.416Z,93.18
2023-04-25T03:11:04.613Z,93.38
2023-04-25T03:12:36.848Z,93.37
2023-04-25T03:14:09.001Z,93.18
2023-04-25T03:15:41.107Z,93.24
2023-04-25T03:17:13.203Z,93.33
2023-04-25T03:18:45.392Z,93.37
2023-04-25T03:20:17.532Z,93.33
2023-04-25T03:21:49.725Z,93.26
2023-04-25T03:23:22.019Z,93.09
2023-04-25T03:24:54.218Z,92.99
2023-04-25T03:26:26.389Z,92.97
2023-04-25T03:27:58.500Z,92.94
2023-04-25T03:29:30.701Z,93.10
2023-04-25T03:31:02.866Z,93.14
2023-04-25T03:32:35.740Z,93.22
2023-04-25T03:34:07.949Z,93.22
2023-04-25T03:35:40.049Z,93.22
2023-04-25T03:37:12.226Z,92.93
2023-04-25T03:38:44.464Z,92.54
2023-04-25T03:40:16.569Z,92.70
2023-04-25T03:41:48.993Z,92.45
2023-04-25T03:43:21.148Z,92.56
2023-04-25T03:44:53.536Z,92.13
2023-04-25T03:46:25.809Z,91.87
2023-04-25T03:47:58.211Z,91.72
2023-04-25T03:49:30.347Z,91.90
2023-04-25T03:51:02.643Z,91.60
2023-04-25T03:52:34.843Z,91.81
2023-04-25T03:54:07.024Z,91.60
2023-04-25T03:55:40.028Z,91.80
2023-04-25T03:57:12.893Z,91.48
2023-04-25T03:58:45.462Z,90.79
2023-04-25T04:00:17.841Z,90.80
2023-04-25T04:01:51.084Z,90.61
2023-04-25T04:03:23.311Z,90.58
2023-04-25T04:04:57.681Z,90.56
2023-04-25T04:06:30.184Z,90.28
2023-04-25T04:08:02.259Z,90.20
2023-04-25T04:09:34.447Z,90.17
2023-04-25T04:11:06.560Z,90.22
2023-04-25T04:12:39.151Z,90.17
2023-04-25T04:14:11.931Z,90.26
2023-04-25T04:15:43.987Z,90.45
2023-04-25T04:17:16.093Z,90.40
2023-04-25T04:18:48.285Z,90.87
2023-04-25T04:20:21.318Z,91.22
2023-04-25T04:21:53.446Z,91.48
2023-04-25T04:23:25.925Z,91.62
2023-04-25T04:24:58.226Z,91.92
2023-04-25T04:26:30.465Z,92.02
2023-04-25T04:28:02.819Z,92.14
2023-04-25T04:29:34.927Z,92.70
2023-04-25T04:31:07.095Z,92.62
2023-04-25T04:32:39.695Z,92.99
2023-04-25T04:34:12.137Z,93.20
2023-04-25T04:35:44.521Z,93.35
2023-04-25T04:37:16.967Z,93.21
2023-04-25T04:38:49.271Z,92.82
2023-04-25T04:40:23.838Z,92.47
2023-04-25T04:41:55.957Z,92.44
2023-04-25T04:43:28.036Z,92.52
2023-04-25T04:45:00.164Z,92.51
2023-04-25T04:46:39.088Z,92.94
2023-04-25T04:48:13.322Z,93.56
2023-04-25T04:49:46.048Z,93.94
2023-04-25T04:51:18.111Z,94.30
2023-04-25T04:52:50.191Z,94.61
2023-04-25T04:54:22.318Z,94.29
2023-04-25T04:55:54.649Z,94.24
2023-04-25T04:57:27.238Z,94.86
2023-04-25T04:58:59.906Z,94.68
2023-04-25T05:00:32.366Z,94.89
2023-04-25T05:02:04.487Z,94.49
2023-04-25T05:03:36.782Z,94.25
2023-04-25T05:05:09.448Z,94.00
2023-04-25T05:06:41.963Z,93.90
2023-04-25T05:08:14.238Z,93.39
2023-04-25T05:09:46.428Z,92.78
2023-04-25T05:11:18.560Z,92.43
2023-04-25T05:12:50.687Z,91.77
2023-04-25T05:14:24.277Z,90.33
2023-04-25T05:15:56.366Z,89.08
2023-04-25T05:17:28.535Z,88.40
2023-04-25T05:19:00.763Z,87.88
2023-04-25T05:20:32.900Z,86.75
2023-04-25T05:22:05.281Z,86.47
2023-04-25T05:23:37.399Z,85.34
2023-04-25T05:25:10.906Z,85.38
2023-04-25T05:26:43.106Z,85.13
2023-04-25T05:28:15.184Z,84.90
2023-04-25T05:29:47.376Z,84.51
2023-04-25T05:31:19.493Z,84.83
2023-04-25T05:32:51.951Z,85.09
2023-04-25T05:34:24.088Z,84.88
2023-04-25T05:35:56.298Z,84.30
2023-04-25T05:37:28.409Z,84.02
2023-04-25T05:39:00.550Z,83.26
2023-04-25T05:40:32.664Z,83.13
2023-04-25T05:42:05.311Z,82.49
2023-04-25T05:43:39.868Z,82.70
2023-04-25T05:45:12.162Z,82.60
2023-04-25T05:46:44.350Z,82.24
2023-04-25T05:48:16.437Z,82.06
2023-04-25T05:49:51.206Z,81.28
2023-04-25T05:51:23.574Z,79.57
2023-04-25T05:52:55.686Z,79.25
2023-04-25T05:54:27.808Z,78.40
2023-04-25T05:55:59.889Z,75.72
2023-04-25T05:57:32.363Z,76.95
2023-04-25T05:59:04.771Z,78.24
2023-04-25T06:00:37.010Z,79.63
2023-04-25T06:02:12.444Z,78.41
2023-04-25T06:03:44.963Z,77.98
2023-04-25T06:05:17.660Z,78.59
2023-04-25T06:06:49.898Z,79.29
2023-04-25T06:08:21.989Z,77.81
2023-04-25T06:09:54.838Z,77.79
2023-04-25T06:11:26.879Z,76.06
2023-04-25T06:12:58.941Z,76.00
2023-04-25T06:14:31.875Z,76.30
2023-04-25T06:16:04.195Z,75.67
2023-04-25T06:17:36.773Z,75.60
2023-04-25T06:19:09.061Z,75.14
2023-04-25T06:20:41.226Z,74.95
2023-04-25T06:22:16.033Z,76.30
2023-04-25T06:23:48.208Z,77.17
2023-04-25T06:25:20.308Z,76.29
2023-04-25T06:26:52.440Z,75.31
2023-04-25T06:28:25.750Z,76.08
2023-04-25T06:29:57.711Z,75.61
2023-04-25T06:31:30.512Z,76.36
2023-04-25T06:33:02.816Z,75.49
2023-04-25T06:34:34.958Z,75.50
2023-04-25T06:36:07.306Z,74.84
2023-04-25T06:37:39.404Z,73.56
2023-04-25T06:39:12.078Z,72.28
2023-04-25T06:40:46.772Z,72.38
2023-04-25T06:42:18.822Z,72.00
2023-04-25T06:43:51.012Z,71.84
2023-04-25T06:45:23.148Z,72.10
2023-04-25T06:46:55.308Z,72.32
2023-04-25T06:48:28.710Z,72.45
2023-04-25T06:50:00.697Z,69.96
2023-04-25T06:51:32.949Z,68.84
2023-04-25T06:53:05.187Z,69.89
2023-04-25T06:54:37.263Z,68.02
2023-04-25T06:56:09.362Z,65.93
2023-04-25T06:57:41.697Z,67.26
2023-04-25T06:59:13.890Z,67.05
2023-04-25T07:00:46.189Z,67.47
2023-04-25T07:02:18.438Z,65.91
2023-04-25T07:03:50.903Z,64.01
2023-04-25T07:05:23.169Z,63.12
2023-04-25T07:06:56.233Z,63.29
2023-04-25T07:08:28.463Z,62.66
2023-04-25T07:10:00.663Z,62.66
2023-04-25T07:11:32.774Z,62.85
2023-04-25T07:13:05.352Z,63.14
2023-04-25T07:14:37.437Z,63.20
2023-04-25T07:16:09.609Z,61.43
2023-04-25T07:17:41.807Z,60.84
2023-04-25T07:19:13.919Z,60.83
2023-04-25T07:20:46.037Z,57.90
2023-04-25T07:22:18.506Z,58.26
2023-04-25T07:23:50.686Z,59.14
2023-04-25T07:25:22.749Z,57.03
2023-04-25T07:26:54.878Z,57.07
2023-04-25T07:28:27.100Z,55.76
2023-04-25T07:29:59.395Z,55.85
2023-04-25T07:31:31.636Z,55.38
2023-04-25T07:33:03.991Z,56.48
2023-04-25T07:34:38.751Z,56.58
2023-04-25T07:36:10.830Z,56.30
2023-04-25T07:37:43.028Z,56.44
2023-04-25T07:39:15.241Z,56.47
2023-04-25T07:40:47.422Z,55.11
2023-04-25T07:42:19.529Z,54.30
2023-04-25T07:43:51.628Z,54.87
2023-04-25T07:45:23.722Z,53.68
2023-04-25T07:46:56.007Z,53.28
2023-04-25T07:48:28.137Z,53.44
2023-04-25T07:50:00.279Z,53.76
2023-04-25T07:51:32.957Z,54.65
2023-04-25T07:53:05.352Z,54.58
2023-04-25T07:54:37.600Z,55.33
2023-04-25T07:56:10.620Z,55.94
2023-04-25T07:57:42.718Z,55.79
2023-04-25T07:59:14.901Z,56.12
2023-04-25T08:00:47.112Z,56.96
2023-04-25T08:02:19.182Z,55.60
2023-04-25T08:03:51.495Z,55.24
2023-04-25T08:05:24.030Z,55.09
2023-04-25T08:06:56.313Z,55.45
2023-04-25T08:08:28.641Z,56.13
2023-04-25T08:10:00.777Z,56.80
2023-04-25T08:11:32.903Z,55.74
2023-04-25T08:13:04.991Z,56.29
2023-04-25T08:14:38.582Z,56.95
2023-04-25T08:16:10.879Z,56.20
2023-04-25T08:17:43.210Z,55.47
2023-04-25T08:19:15.316Z,55.25
2023-04-25T08:20:47.517Z,55.02
2023-04-25T08:22:19.609Z,54.49
2023-04-25T08:23:51.693Z,54.88
2023-04-25T08:25:23.829Z,54.69
2023-04-25T08:26:56.802Z,54.37
2023-04-25T08:28:28.971Z,54.57
2023-04-25T08:30:01.135Z,53.13
2023-04-25T08:31:33.690Z,52.84
2023-04-25T08:33:06.172Z,53.81
2023-04-25T08:34:40.121Z,53.09
2023-04-25T08:36:12.389Z,53.20
2023-04-25T08:37:44.556Z,51.73
2023-04-25T08:39:16.760Z,53.79
2023-04-25T08:40:52.893Z,53.71
2023-04-25T08:42:26.220Z,52.58
2023-04-25T08:44:02.056Z,51.99
2023-04-25T08:45:34.960Z,52.16
2023-04-25T08:47:07.400Z,52.48
2023-04-25T08:48:42.226Z,51.33
2023-04-25T08:50:14.309Z,51.92
2023-04-25T08:51:52.281Z,51.07
2023-04-25T08:53:28.867Z,51.65
2023-04-25T08:55:02.021Z,52.32
2023-04-25T08:56:36.466Z,52.90
2023-04-25T08:58:09.353Z,52.32
2023-04-25T08:59:45.706Z,54.31
2023-04-25T09:01:18.962Z,53.12
2023-04-25T09:02:51.090Z,53.32
2023-04-25T09:04:23.548Z,54.00
2023-04-25T09:05:55.719Z,54.46
2023-04-25T09:07:27.974Z,54.72
2023-04-25T09:09:07.414Z,53.30
2023-04-25T09:10:40.271Z,54.44
2023-04-25T09:12:12.409Z,53.56
2023-04-25T09:13:44.620Z,54.44
2023-04-25T09:15:20.782Z,54.25
2023-04-25T09:17:02.450Z,54.85
2023-04-25T09:18:37.439Z,55.01
2023-04-25T09:20:11.601Z,55.29
2023-04-25T09:21:43.896Z,54.73
2023-04-25T09:23:16.663Z,53.46
2023-04-25T09:24:50.314Z,52.53
2023-04-25T09:26:22.931Z,52.62
2023-04-25T09:27:55.743Z,49.82
2023-04-25T09:29:35.961Z,50.80
2023-04-25T09:31:09.013Z,51.31
2023-04-25T09:32:44.479Z,49.49
2023-04-25T09:34:18.330Z,50.85
2023-04-25T09:35:56.635Z,49.92
2023-04-25T09:37:31.096Z,50.68
2023-04-25T09:39:05.029Z,50.97
2023-04-25T09:40:41.167Z,51.32
2023-04-25T09:42:13.318Z,50.70
2023-04-25T09:43:48.224Z,50.43
2023-04-25T09:45:20.552Z,51.87
2023-04-25T09:46:55.922Z,49.19
2023-04-25T09:48:29.506Z,49.59
2023-04-25T09:50:01.802Z,50.36
2023-04-25T09:51:33.894Z,49.80
2023-04-25T09:53:07.119Z,50.35
2023-04-25T09:54:39.150Z,49.17
2023-04-25T09:56:13.187Z,46.03
2023-04-25T09:57:47.718Z,46.80
2023-04-25T09:59:26.555Z,46.88
2023-04-25T10:01:03.776Z,47.03
2023-04-25T10:02:36.694Z,47.26
2023-04-25T10:04:12.373Z,47.76
2023-04-25T10:05:44.884Z,45.86
2023-04-25T10:07:18.260Z,46.44
2023-04-25T10:08:56.086Z,47.70
2023-04-25T10:10:31.574Z,48.38
2023-04-25T10:12:05.062Z,52.67
2023-04-25T10:13:37.696Z,54.67
2023-04-25T10:15:10.423Z,55.14
2023-04-25T10:16:43.212Z,56.16
2023-04-25T10:18:15.597Z,56.55
2023-04-25T10:19:49.104Z,59.08
2023-04-25T10:21:23.494Z,57.55
2023-04-25T10:22:57.944Z,56.99
2023-04-25T10:24:30.161Z,55.50
2023-04-25T10:26:02.553Z,59.02
2023-04-25T10:27:36.064Z,54.95
2023-04-25T10:29:08.170Z,55.76
2023-04-25T10:31:09.504Z,51.36
2023-04-25T10:32:43.437Z,53.31
2023-04-25T10:34:15.522Z,53.65
2023-04-25T10:35:47.666Z,54.17
2023-04-25T10:37:20.831Z,56.17
2023-04-25T10:38:53.167Z,59.17
2023-04-25T10:40:25.489Z,59.80
2023-04-25T10:41:58.728Z,57.04
2023-04-25T10:43:33.455Z,59.83
2023-04-25T10:45:09.325Z,60.98
2023-04-25T10:46:41.818Z,59.61
2023-04-25T10:48:27.335Z,61.79
2023-04-25T10:50:06.547Z,61.81
2023-04-25T10:51:54.464Z,60.04
2023-04-25T10:53:32.553Z,64.16
2023-04-25T10:55:05.592Z,62.34
2023-04-25T10:56:37.657Z,62.34
2023-04-25T10:58:09.750Z,61.09
2023-04-25T10:59:44.509Z,61.25
2023-04-25T11:01:29.759Z,56.46
2023-04-25T11:03:02.537Z,54.31
2023-04-25T11:04:35.627Z,53.76
2023-04-25T11:06:33.317Z,54.64
2023-04-25T11:08:11.385Z,54.90
2023-04-25T11:09:43.556Z,55.78
2023-04-25T11:11:16.574Z,57.18
2023-04-25T11:12:49.094Z,55.47
2023-04-25T11:14:21.844Z,55.07
2023-04-25T11:16:03.173Z,55.59
2023-04-25T11:17:47.818Z,51.63
2023-04-25T11:19:21.936Z,55.90
2023-04-25T11:20:54.290Z,53.72
2023-04-25T11:22:28.230Z,53.10
2023-04-25T11:24:00.915Z,53.76
2023-04-25T11:25:33.720Z,54.03
2023-04-25T11:27:07.562Z,55.45
2023-04-25T11:28:39.688Z,55.96
2023-04-25T11:30:16.929Z,58.22
2023-04-25T11:31:49.273Z,55.59
2023-04-25T11:33:25.903Z,58.13
2023-04-25T11:34:59.206Z,57.95
2023-04-25T11:36:32.204Z,58.19
2023-04-25T11:38:04.352Z,58.57
2023-04-25T11:39:36.541Z,58.62
2023-04-25T11:41:08.786Z,58.39
2023-04-25T11:42:44.815Z,59.23
2023-04-25T11:44:18.007Z,60.62
2023-04-25T11:45:52.184Z,61.26
2023-04-25T11:47:31.271Z,62.99
2023-04-25T11:49:03.982Z,60.75
2023-04-25T11:50:36.704Z,63.04
2023-04-25T11:52:09.176Z,61.51
2023-04-25T11:53:46.147Z,63.38
2023-04-25T11:55:21.842Z,62.83
2023-04-25T11:56:53.946Z,62.71
2023-04-25T11:58:27.258Z,62.66
2023-04-25T12:00:07.272Z,61.75
2023-04-25T12:01:41.100Z,61.66
2023-04-25T12:03:13.478Z,63.25
2023-04-25T12:04:46.945Z,65.58
2023-04-25T12:06:19.517Z,65.93
2023-04-25T12:07:51.858Z,69.00
2023-04-25T12:09:32.447Z,69.43
2023-04-25T12:11:04.850Z,70.67
2023-04-25T12:12:37.292Z,72.13
2023-04-25T12:14:09.528Z,72.47
2023-04-25T12:15:42.607Z,72.13
2023-04-25T12:17:14.812Z,72.09
2023-04-25T12:18:47.003Z,72.10
2023-04-25T12:20:21.833Z,72.79
2023-04-25T12:21:58.574Z,73.09
2023-04-25T12:23:32.133Z,73.92
2023-04-25T12:25:08.947Z,73.25
2023-04-25T12:27:10.813Z,71.26
2023-04-25T12:28:48.687Z,70.35
2023-04-25T12:30:21.651Z,68.51
2023-04-25T12:31:54.963Z,70.31
2023-04-25T12:33:28.570Z,70.45
2023-04-25T12:35:00.744Z,71.73
2023-04-25T12:36:33.000Z,71.92
2023-04-25T12:38:05.294Z,72.22
2023-04-25T12:39:37.622Z,72.96
2023-04-25T12:41:10.734Z,72.82
2023-04-25T12:42:42.754Z,72.89
2023-04-25T12:44:15.296Z,74.39
2023-04-25T12:45:52.502Z,75.04
2023-04-25T12:47:24.696Z,75.50
2023-04-25T12:48:58.744Z,75.30
2023-04-25T12:50:35.014Z,75.87
2023-04-25T12:52:07.125Z,76.91
2023-04-25T12:53:40.526Z,79.45
2023-04-25T12:55:12.430Z,80.04
2023-04-25T12:56:44.586Z,81.23
2023-04-25T12:58:18.197Z,81.93
2023-04-25T12:59:50.272Z,81.86
2023-04-25T13:01:23.124Z,82.14
2023-04-25T13:02:55.421Z,81.97
2023-04-25T13:04:27.938Z,82.26
2023-04-25T13:06:00.071Z,82.82
2023-04-25T13:07:33.500Z,82.90
2023-04-25T13:09:08.079Z,83.00
2023-04-25T13:10:40.646Z,82.52
2023-04-25T13:12:12.704Z,82.31
2023-04-25T13:13:45.392Z,82.19
2023-04-25T13:15:17.718Z,83.35
2023-04-25T13:16:50.086Z,83.74
2023-04-25T13:18:22.304Z,82.82
2023-04-25T13:19:54.453Z,83.27
2023-04-25T13:21:26.979Z,83.64
2023-04-25T13:23:00.268Z,84.41
2023-04-25T13:24:33.246Z,84.60
2023-04-25T13:26:05.540Z,83.98
2023-04-25T13:27:38.503Z,84.32
2023-04-25T13:29:10.574Z,84.22
2023-04-25T13:30:42.863Z,84.82
2023-04-25T13:32:14.983Z,85.11
2023-04-25T13:33:47.112Z,84.81
2023-04-25T13:35:19.254Z,85.26
2023-04-25T13:36:51.447Z,85.99
2023-04-25T13:38:24.793Z,86.27
2023-04-25T13:39:57.776Z,86.21
2023-04-25T13:41:30.288Z,87.91
2023-04-25T13:43:04.725Z,89.48
2023-04-25T13:44:36.848Z,90.59
2023-04-25T13:46:10.972Z,90.79
2023-04-25T13:47:53.074Z,90.59
2023-04-25T13:49:25.366Z,89.60
2023-04-25T13:50:57.480Z,87.83
2023-04-25T13:52:29.597Z,86.71
2023-04-25T13:54:01.916Z,86.88
2023-04-25T13:55:35.176Z,86.47
2023-04-25T13:57:08.192Z,85.93
2023-04-25T13:58:40.763Z,85.39
2023-04-25T14:00:13.501Z,85.69
2023-04-25T14:01:46.206Z,86.41
2023-04-25T14:03:18.478Z,85.32
2023-04-25T14:04:50.756Z,85.25
2023-04-25T14:06:25.254Z,84.88
2023-04-25T14:07:57.381Z,82.16
2023-04-25T14:09:30.092Z,81.48
2023-04-25T14:11:02.288Z,83.11
2023-04-25T14:12:34.529Z,82.62
2023-04-25T14:14:06.827Z,83.24
2023-04-25T14:15:39.002Z,82.91
2023-04-25T14:17:11.375Z,83.42
2023-04-25T14:18:43.506Z,83.70
2023-04-25T14:20:15.728Z,84.12
2023-04-25T14:21:48.158Z,84.19
2023-04-25T14:23:20.450Z,84.50
2023-04-25T14:24:52.542Z,84.71
2023-04-25T14:26:24.656Z,84.74
2023-04-25T14:27:56.755Z,82.73
2023-04-25T14:29:28.858Z,79.99
2023-04-25T14:31:02.073Z,78.92
2023-04-25T14:32:34.254Z,78.91
2023-04-25T14:34:06.903Z,79.27
2023-04-25T14:35:39.381Z,80.57
2023-04-25T14:37:11.483Z,80.38
2023-04-25T14:38:43.673Z,80.30
2023-04-25T14:40:16.744Z,80.15
2023-04-25T14:41:48.945Z,79.39
2023-04-25T14:43:21.203Z,80.09
2023-04-25T14:44:53.336Z,80.68
2023-04-25T14:46:25.623Z,80.52
2023-04-25T14:47:57.825Z,80.36
2023-04-25T14:49:29.947Z,81.29
2023-04-25T14:51:02.452Z,81.07
2023-04-25T14:52:34.632Z,79.73
2023-04-25T14:54:06.776Z,78.23
2023-04-25T14:55:38.986Z,77.44
2023-04-25T14:57:11.117Z,77.03
2023-04-25T14:58:43.192Z,76.76
2023-04-25T15:00:20.638Z,77.31
2023-04-25T15:01:53.350Z,76.61
2023-04-25T15:03:25.774Z,75.94
2023-04-25T15:04:58.072Z,76.26
2023-04-25T15:06:31.662Z,76.47
2023-04-25T15:08:03.920Z,75.34
2023-04-25T15:09:36.277Z,74.78
2023-04-25T15:11:08.458Z,75.86
2023-04-25T15:12:46.881Z,75.50
2023-04-25T15:14:19.752Z,75.70
2023-04-25T15:15:52.574Z,75.64
2023-04-25T15:17:24.749Z,74.69
2023-04-25T15:18:56.898Z,74.63
2023-04-25T15:20:29.032Z,74.17
2023-04-25T15:22:02.778Z,74.27
2023-04-25T15:23:34.877Z,74.43
2023-04-25T15:25:09.172Z,74.79
2023-04-25T15:26:41.297Z,75.11
2023-04-25T15:28:16.328Z,75.67
2023-04-25T15:29:48.589Z,76.27
2023-04-25T15:31:21.408Z,76.16
2023-04-25T15:32:53.708Z,76.34
2023-04-25T15:34:25.925Z,76.00
2023-04-25T15:35:59.232Z,76.44
2023-04-25T15:37:31.840Z,76.13
2023-04-25T15:39:04.143Z,76.22
2023-04-25T15:40:36.315Z,75.55
2023-04-25T15:42:08.916Z,75.65
2023-04-25T15:43:41.201Z,76.34
2023-04-25T15:45:13.293Z,76.52
2023-04-25T15:46:46.220Z,76.90
2023-04-25T15:48:18.288Z,77.07
2023-04-25T15:49:50.421Z,77.11
2023-04-25T15:51:22.604Z,77.66
2023-04-25T15:52:54.873Z,77.87
2023-04-25T15:54:27.050Z,77.72
2023-04-25T15:55:59.239Z,77.57
2023-04-25T15:57:33.371Z,77.50
2023-04-25T17:02:27.452Z,81.65
2023-04-25T17:04:00.444Z,81.34
2023-04-25T17:05:35.773Z,80.79
2023-04-25T17:07:08.805Z,81.22
2023-04-25T17:08:41.670Z,81.57
2023-04-25T17:10:13.841Z,81.81
2023-04-25T17:11:46.042Z,81.78
2023-04-25T17:13:18.193Z,81.81
2023-04-25T17:14:50.771Z,81.65
2023-04-25T17:16:25.729Z,81.76
2023-04-25T17:17:57.997Z,82.47
2023-04-25T17:19:31.872Z,82.95
2023-04-25T17:21:04.892Z,83.53
2023-04-25T17:22:37.693Z,83.60
2023-04-25T17:24:10.295Z,84.10
2023-04-25T17:25:42.455Z,84.43
2023-04-25T17:27:14.665Z,84.56
2023-04-25T17:28:50.025Z,84.34
2023-04-25T17:30:24.626Z,83.95
2023-04-25T17:31:57.621Z,83.50
2023-04-25T17:33:29.790Z,83.37
2023-04-25T17:35:02.016Z,83.74
2023-04-25T17:36:34.122Z,84.26
2023-04-25T17:38:06.391Z,83.97
2023-04-25T17:39:38.567Z,83.93
2023-04-25T17:41:11.128Z,84.01
2023-04-25T17:42:43.693Z,83.83
2023-04-25T17:44:15.844Z,84.22
2023-04-25T17:45:48.096Z,84.54
2023-04-25T17:47:20.230Z,85.01
2023-04-25T17:48:52.666Z,85.39
2023-04-25T17:50:25.303Z,85.85
2023-04-25T17:51:57.430Z,86.11
2023-04-25T17:53:29.587Z,86.43
2023-04-25T17:55:01.770Z,86.78
2023-04-25T17:56:36.872Z,87.29
2023-04-25T17:58:09.040Z,87.58
2023-04-25T17:59:41.203Z,87.47
2023-04-25T18:01:13.348Z,87.67
2023-04-25T18:02:47.637Z,87.67
2023-04-25T18:04:19.933Z,87.91
2023-04-25T18:05:52.144Z,87.91
2023-04-25T18:07:24.299Z,87.67
2023-04-25T18:08:57.639Z,87.73
2023-04-25T18:10:29.654Z,87.59
2023-04-25T18:12:02.548Z,87.83
2023-04-25T18:13:34.672Z,88.13
2023-04-25T18:15:07.651Z,88.18
2023-04-25T18:16:39.874Z,88.27
2023-04-25T18:18:20.188Z,88.50
2023-04-25T18:19:52.501Z,88.92
2023-04-25T18:21:24.823Z,89.18
2023-04-25T18:22:56.919Z,89.25
2023-04-25T18:24:29.088Z,89.58
2023-04-25T18:26:01.583Z,89.80
2023-04-25T18:27:33.738Z,89.77
2023-04-25T18:29:07.626Z,89.84
2023-04-25T18:30:39.818Z,89.89
2023-04-25T18:32:12.243Z,90.16
2023-04-25T18:33:44.926Z,90.44
2023-04-25T18:35:17.511Z,90.36
2023-04-25T18:36:49.645Z,90.42
2023-04-25T18:38:34.884Z,90.68
2023-04-25T18:40:10.513Z,90.53
2023-04-25T18:41:55.219Z,90.61
2023-04-25T18:43:32.465Z,90.75
2023-04-25T18:45:05.884Z,90.90
2023-04-25T18:46:38.163Z,90.45
2023-04-25T18:48:10.394Z,90.57
2023-04-25T18:49:42.704Z,90.29
2023-04-25T18:51:15.131Z,90.14
2023-04-25T18:52:47.256Z,90.44
2023-04-25T18:54:19.436Z,90.62
2023-04-25T18:55:51.676Z,90.27
2023-04-25T18:57:23.826Z,90.22
2023-04-25T18:58:56.771Z,90.11
2023-04-25T19:00:29.624Z,90.30
2023-04-25T19:02:05.768Z,90.48
2023-04-25T19:03:38.597Z,90.56
2023-04-25T19:05:11.692Z,90.45
2023-04-25T19:06:43.897Z,90.39
2023-04-25T19:08:16.040Z,90.38
2023-04-25T19:09:48.280Z,90.33
2023-04-25T19:11:21.936Z,90.40
2023-04-25T19:12:54.397Z,90.50
2023-04-25T19:14:28.043Z,90.38
2023-04-25T19:16:00.112Z,90.47
2023-04-25T19:17:32.440Z,90.31
2023-04-25T19:19:08.138Z,90.09
2023-04-25T19:20:40.208Z,89.82
2023-04-25T19:22:12.423Z,90.25
2023-04-25T19:23:44.672Z,90.10
2023-04-25T19:25:16.840Z,90.01
2023-04-25T19:26:49.037Z,90.02
2023-04-25T19:28:21.240Z,89.78
2023-04-25T19:29:58.717Z,90.03
2023-04-25T19:31:31.072Z,90.09
2023-04-25T19:33:03.828Z,89.99
2023-04-25T19:34:36.944Z,90.14
2023-04-25T19:36:09.108Z,90.26
2023-04-25T19:37:47.264Z,90.47
2023-04-25T19:39:20.108Z,90.52
2023-04-25T19:40:52.248Z,90.71
2023-04-25T19:42:24.532Z,90.73
2023-04-25T19:43:56.628Z,91.01
2023-04-25T19:45:28.880Z,91.31
2023-04-25T19:47:02.259Z,91.23
2023-04-25T19:48:34.890Z,91.17
2023-04-25T19:50:08.808Z,91.49
2023-04-25T19:51:41.153Z,91.50
2023-04-25T19:53:13.239Z,91.83
2023-04-25T19:54:48.062Z,91.92
2023-04-25T19:56:20.173Z,92.06
2023-04-25T19:57:52.439Z,92.26
2023-04-25T19:59:24.639Z,92.38
2023-04-25T20:00:58.113Z,92.60
2023-04-25T20:02:30.412Z,92.51
2023-04-25T20:04:02.626Z,92.43
2023-04-25T20:05:34.709Z,92.36
2023-04-25T20:07:06.893Z,91.96
2023-04-25T20:08:39.030Z,91.87
2023-04-25T20:10:16.136Z,91.86
2023-04-25T20:11:48.354Z,91.90
2023-04-25T20:13:20.528Z,91.76
2023-04-25T20:14:52.611Z,91.52
2023-04-25T20:16:24.785Z,91.31
2023-04-25T20:17:56.913Z,91.37
2023-04-25T20:19:29.170Z,91.45
2023-04-25T20:21:02.512Z,91.50
2023-04-25T20:22:36.552Z,91.51
2023-04-25T20:24:11.698Z,91.73
2023-04-25T20:25:43.943Z,91.62
2023-04-25T20:27:16.047Z,91.83
2023-04-25T20:28:48.246Z,91.86
2023-04-25T20:30:20.367Z,91.74
2023-04-25T20:31:53.532Z,91.90
2023-04-25T20:33:25.673Z,91.86
2023-04-25T20:34:58.223Z,92.08
2023-04-25T20:36:30.829Z,92.37
2023-04-25T20:38:02.937Z,92.36
2023-04-25T20:39:35.444Z,92.36
2023-04-25T20:41:07.695Z,92.48
2023-04-25T20:42:39.865Z,92.55
2023-04-25T20:44:12.876Z,92.24
2023-04-25T20:45:45.187Z,92.32
2023-04-25T20:47:17.445Z,91.98
2023-04-25T20:50:22.272Z,91.57
2023-04-25T20:51:54.368Z,91.32
2023-04-25T20:53:26.962Z,90.94
2023-04-25T20:54:59.430Z,90.72
2023-04-25T20:56:31.608Z,90.47
2023-04-25T20:58:03.856Z,90.35
2023-04-25T20:59:36.181Z,90.05
2023-04-25T21:01:08.535Z,90.13
2023-04-25T21:02:40.908Z,89.76
2023-04-25T21:04:13.353Z,89.61
2023-04-25T21:05:45.645Z,89.49